Tukwila, Washington
Current Conditions -  °F | °C
As of 11:40 PM on Tuesday 25 Nov 2014 (Local Time) from KSEA Reporting Station
Light Rain Light Rain  
Wind Chill: 55°   Ceiling: 700
Heat Index: 55°   Visibility: 6mi
Dew Point: 54°   Wind: 14mph
Humidity: 94%   Direction: 190°S
Pressure: 30.19"   Gusts: NA
Location:  47.46°N, 122.25°W
Report Text: KSEA 260740Z 19012KT 6SM -RA BR OVC007 13/12 A3019 RMK AO2 RAB35 P0001
Loading
Personal Weather Stations






























Interactive Weather Map New forecast layout! Learn more

10-Day Weather Forecast

Advertisements
Track Severe Weather on mobile